Предлагаем Вашему вниманию английскую версию страницы: AUTOTAF.ME 37953 - aviation weather forecast Goris

AUTOTAF 37953 - авиапрогноз Горис

Сегодня рассвет 03:38 UTC, восход солнца 04:07 UTC,
местный полдень 09:07 UTC, заход солнца 14:06 UTC,
наступление темноты 14:35 UTC.

Краткий прогноз 37953 на 9 часов

AUTOTAF.ME 37953 252000Z 2521/2606 29003MPS CAVOK

Детальный прогноз 37953 на 24 часа

AUTOTAF.ME 37953 252000Z 2521/2621 29003MPS 9999 SKC TX01/2609Z TNM05/2521Z     
  BECMG 2607/2609 VRB02MPS    
  BECMG 2616/2618 29003MPS

Подробный табличный прогноз

Время (UTC) miniAUTOTAF на 3 ч WX FZLVL
M AGL
ICE TURB Т
(°С)
Тd
(°С)
f(%) QNH
(гПа)
WIND/T
18 VRB02MPS 9999 FEW190 210 -5 -9 73 1022 ...
21 29003MPS 9999 SKC 180 -5 -9 72 1023 ...
26.01.2021
00 29003MPS 9999 SKC SFC -5 -9 72 1022 ...
03 29003MPS 9999 FEW170 210 -4 -9 70 1022 ...
06 VRB02MPS 9999 FEW150 1350 -2 -7 73 1022 ...
09 VRB02MPS 9999 OVC142 1350 1 -3 75 1020 ...
12 VRB02MPS 9999 FEW170 1350 1 -3 79 1019 ...
15 VRB02MPS 9999 SKC 1350 -2 -6 78 1021 ...
18 29003MPS 9999 SKC 1350 -3 -7 79 1022 ...
21 29003MPS 9999 SKC 1200 -4 -7 80 1022 ...
27.01.2021
00 29003MPS 9999 SKC 1200 -3 -6 80 1022 ...
03 VRB02MPS 9999 SKC 1200 -3 -6 80 1021 ...
06 VRB02MPS 9999 FEW230 1650 -1 -4 78 1021 ...
09 VRB02MPS 9999 FEW200 1800 2 -2 76 1019 ...
12 VRB02MPS 9999 FEW210 1950 2 -2 79 1016 ...
15 VRB02MPS 9999 OVC180 1950 -0 -3 80 1017 ...


Широта 39.5°, долгота 46.3°, высота 1367 м абс.
Средняя высота рельефа местности 1186 м абс.
Прогнозы обновляются четыре раза в сутки: в 02, 08, 14, 20 ч всемирного времени.


Выбрать прогноз по другой модели Горис
Онлайн-сводка гроз по Горис (для РФ и ближнего зарубежья)
Карта фактических гроз в окрестностях Горис
Динамические прогностические карты (ventusky.com)
Прогностическая карта высоты нижней границы облаков по Горис (windy.com)
Выбрать другой город

Прогноз предназначен для личного научно-познавательного использования частными лицами
и не предназначен для принятия важных решений и выполнения реальных полётов воздушных судов

При копировании или ином использовании любых материалов данного сайта ссылка на © meteocenter.asia обязательна.

0.65/4.3